createdAt,value
2022-08-18T00:01:25.103Z,1.70
2022-08-18T00:03:59.504Z,1.85
2022-08-18T00:06:31.596Z,1.75
2022-08-18T00:09:02.195Z,1.97
2022-08-18T00:11:40.416Z,1.95
2022-08-18T00:14:22.675Z,2.08
2022-08-18T00:16:53.730Z,1.75
2022-08-18T00:19:45.561Z,2.30
2022-08-18T00:22:16.024Z,2.22
2022-08-18T00:24:55.178Z,3.35
2022-08-18T00:30:02.728Z,1.90
2022-08-18T00:32:34.975Z,2.53
2022-08-18T00:35:07.857Z,2.92
2022-08-18T00:37:36.423Z,2.45
2022-08-18T00:40:05.745Z,2.60
2022-08-18T00:45:05.336Z,2.20
2022-08-18T00:47:42.596Z,1.77
2022-08-18T00:50:34.950Z,2.53
2022-08-18T00:53:18.154Z,2.10
2022-08-18T00:55:53.822Z,1.75
2022-08-18T00:58:36.095Z,2.10
2022-08-18T01:01:06.896Z,1.83
2022-08-18T01:03:39.874Z,2.33
2022-08-18T01:06:14.810Z,2.10
2022-08-18T01:08:43.113Z,2.03
2022-08-18T01:11:10.794Z,2.03
2022-08-18T01:13:43.128Z,2.15
2022-08-18T01:16:29.726Z,1.77
2022-08-18T01:19:16.123Z,2.50
2022-08-18T01:21:51.267Z,2.35
2022-08-18T01:24:43.059Z,2.65
2022-08-18T01:27:15.120Z,2.13
2022-08-18T01:29:43.642Z,2.50
2022-08-18T01:32:14.429Z,2.80
2022-08-18T01:34:42.376Z,2.72
2022-08-18T01:37:10.198Z,2.17
2022-08-18T01:41:20.988Z,2.88
2022-08-18T01:42:26.656Z,2.60
2022-08-18T01:44:54.345Z,2.47
2022-08-18T01:47:21.907Z,2.80
2022-08-18T01:49:49.799Z,2.60
2022-08-18T01:52:21.770Z,2.50
2022-08-18T01:54:51.203Z,1.83
2022-08-18T01:57:22.399Z,2.60
2022-08-18T01:59:50.151Z,2.35
2022-08-18T02:02:32.814Z,2.25
2022-08-18T02:05:08.120Z,2.17
2022-08-18T02:07:38.089Z,2.45
2022-08-18T02:10:12.069Z,2.30
2022-08-18T02:12:41.808Z,3.25
2022-08-18T02:15:11.123Z,2.45
2022-08-18T02:17:42.192Z,2.67
2022-08-18T02:20:15.957Z,2.30
2022-08-18T02:22:44.258Z,3.00
2022-08-18T02:25:12.603Z,2.38
2022-08-18T02:27:40.361Z,2.80
2022-08-18T02:30:12.802Z,2.97
2022-08-18T02:32:41.613Z,3.20
2022-08-18T02:35:11.820Z,2.60
2022-08-18T02:37:42.377Z,2.72
2022-08-18T02:40:15.201Z,2.17
2022-08-18T02:42:46.011Z,2.45
2022-08-18T02:45:14.903Z,2.13
2022-08-18T02:47:44.237Z,2.78
2022-08-18T02:50:13.921Z,2.85
2022-08-18T02:52:42.125Z,2.80
2022-08-18T02:55:10.640Z,2.92
2022-08-18T02:57:46.307Z,3.22
2022-08-18T03:00:19.023Z,2.97
2022-08-18T03:02:54.554Z,3.50
2022-08-18T03:05:22.370Z,3.33
2022-08-18T03:07:51.167Z,3.83
2022-08-18T03:10:32.565Z,3.60
2022-08-18T03:13:02.725Z,3.17
2022-08-18T03:15:30.421Z,3.80
2022-08-18T03:17:58.293Z,3.92
2022-08-18T03:20:30.570Z,2.88
2022-08-18T03:23:05.441Z,3.35
2022-08-18T03:25:33.677Z,3.67
2022-08-18T03:28:04.438Z,3.85
2022-08-18T03:30:31.982Z,3.00
2022-08-18T03:32:59.745Z,3.42
2022-08-18T03:35:27.352Z,3.60
2022-08-18T03:37:59.784Z,3.28
2022-08-18T03:40:27.822Z,3.38
2022-08-18T03:42:55.484Z,2.97
2022-08-18T03:45:24.428Z,3.58
2022-08-18T03:47:53.378Z,3.60
2022-08-18T03:50:21.885Z,3.45
2022-08-18T03:52:49.471Z,2.95
2022-08-18T03:55:17.375Z,3.88
2022-08-18T03:57:45.735Z,3.78
2022-08-18T04:00:14.293Z,4.47
2022-08-18T04:02:42.101Z,6.13
2022-08-18T04:05:11.517Z,4.78
2022-08-18T04:07:39.154Z,5.13
2022-08-18T04:10:07.652Z,7.07
2022-08-18T04:12:46.887Z,8.40
2022-08-18T04:15:14.653Z,15.25
2022-08-18T04:18:03.332Z,11.38
2022-08-18T04:20:34.852Z,4.33
2022-08-18T04:23:03.139Z,7.07
2022-08-18T04:25:33.125Z,3.22
2022-08-18T04:28:03.515Z,5.32
2022-08-18T04:30:31.824Z,5.15
2022-08-18T04:33:02.512Z,5.45
2022-08-18T04:35:31.137Z,5.10
2022-08-18T04:37:58.898Z,5.50
2022-08-18T04:40:27.347Z,5.18
2022-08-18T04:42:54.965Z,5.43
2022-08-18T04:45:22.745Z,6.32
2022-08-18T04:47:51.403Z,5.45
2022-08-18T04:50:19.942Z,6.43
2022-08-18T04:53:06.313Z,6.20
2022-08-18T04:55:33.766Z,6.60
2022-08-18T04:58:01.695Z,6.65
2022-08-18T05:00:29.314Z,6.57
2022-08-18T05:02:57.587Z,6.90
2022-08-18T05:05:25.695Z,6.03
2022-08-18T05:07:53.404Z,5.95
2022-08-18T05:10:21.085Z,6.57
2022-08-18T05:12:49.039Z,6.50
2022-08-18T05:15:18.972Z,6.32
2022-08-18T05:17:50.498Z,6.70
2022-08-18T05:20:19.812Z,6.00
2022-08-18T05:22:47.436Z,5.57
2022-08-18T05:25:16.170Z,6.03
2022-08-18T05:27:44.720Z,7.97
2022-08-18T05:30:15.278Z,6.28
2022-08-18T05:32:49.986Z,6.43
2022-08-18T05:35:37.055Z,6.38
2022-08-18T05:38:39.709Z,9.15
2022-08-18T05:41:33.873Z,8.52
2022-08-18T05:44:02.718Z,8.48
2022-08-18T05:46:53.397Z,9.90
2022-08-18T05:49:22.518Z,8.82
2022-08-18T05:52:19.769Z,8.98
2022-08-18T05:55:14.625Z,9.15
2022-08-18T05:58:01.943Z,11.15
2022-08-18T06:00:30.861Z,12.70
2022-08-18T06:03:17.661Z,11.77
2022-08-18T06:05:57.590Z,10.10
2022-08-18T06:08:43.782Z,10.55
2022-08-18T06:11:22.440Z,10.25
2022-08-18T06:13:54.324Z,9.63
2022-08-18T06:16:48.612Z,9.48
2022-08-18T06:20:02.258Z,8.20
2022-08-18T06:22:57.432Z,8.50
2022-08-18T06:25:55.419Z,9.88
2022-08-18T06:28:23.593Z,10.87
2022-08-18T06:31:16.412Z,8.40
2022-08-18T06:34:29.896Z,7.82
2022-08-18T06:37:56.162Z,11.18
2022-08-18T06:40:23.790Z,11.43
2022-08-18T06:42:51.543Z,9.68
2022-08-18T06:45:22.444Z,10.48
2022-08-18T06:48:04.119Z,11.55
2022-08-18T06:50:53.343Z,8.35
2022-08-18T06:53:28.103Z,8.07
2022-08-18T06:55:56.762Z,5.72
2022-08-18T06:58:31.114Z,7.28
2022-08-18T07:01:05.845Z,6.13
2022-08-18T07:03:39.490Z,5.97
2022-08-18T07:06:21.523Z,5.88
2022-08-18T07:08:53.670Z,6.78
2022-08-18T07:11:33.433Z,6.00
2022-08-18T07:14:23.316Z,6.05
2022-08-18T07:17:06.027Z,6.45
2022-08-18T07:19:34.100Z,6.65
2022-08-18T07:22:16.902Z,6.47
2022-08-18T07:24:49.613Z,8.50
2022-08-18T07:27:49.348Z,6.20
2022-08-18T07:30:19.404Z,7.05
2022-08-18T07:33:29.159Z,6.78
2022-08-18T07:36:05.737Z,6.68
2022-08-18T07:38:52.753Z,6.85
2022-08-18T07:41:30.793Z,6.88
2022-08-18T07:44:34.748Z,7.10
2022-08-18T07:47:12.681Z,5.85
2022-08-18T07:50:13.447Z,5.35
2022-08-18T07:53:08.467Z,5.68
2022-08-18T07:55:40.010Z,5.38
2022-08-18T07:58:27.572Z,5.57
2022-08-18T08:01:25.013Z,5.97
2022-08-18T08:04:25.493Z,5.55
2022-08-18T08:07:23.987Z,5.38
2022-08-18T08:10:28.668Z,5.75
2022-08-18T08:13:36.986Z,5.68
2022-08-18T08:19:12.647Z,5.55
2022-08-18T08:21:52.836Z,5.55
2022-08-18T08:25:42.948Z,5.22
2022-08-18T08:28:41.268Z,4.95
2022-08-18T08:31:38.480Z,4.63
2022-08-18T08:34:34.585Z,4.55
2022-08-18T08:37:09.401Z,4.57
2022-08-18T08:39:45.896Z,4.20
2022-08-18T08:42:40.447Z,4.03
2022-08-18T08:45:26.883Z,5.03
2022-08-18T08:48:21.965Z,5.10
2022-08-18T08:51:24.203Z,4.35
2022-08-18T08:54:39.518Z,4.28
2022-08-18T08:57:09.840Z,5.00
2022-08-18T08:59:40.122Z,4.53
2022-08-18T09:02:27.086Z,4.03
2022-08-18T09:05:40.222Z,4.95
2022-08-18T09:08:13.341Z,4.22
2022-08-18T09:11:13.324Z,4.57
2022-08-18T09:14:00.466Z,3.88
2022-08-18T09:17:18.112Z,3.75
2022-08-18T09:20:11.390Z,4.23
2022-08-18T09:23:13.890Z,3.50
2022-08-18T09:25:42.093Z,3.72
2022-08-18T09:28:39.398Z,4.32
2022-08-18T09:31:08.859Z,3.40
2022-08-18T09:33:40.624Z,3.22
2022-08-18T09:36:44.071Z,3.85
2022-08-18T09:39:53.816Z,3.03
2022-08-18T09:42:53.718Z,3.55
2022-08-18T09:49:13.936Z,2.97
2022-08-18T09:50:37.284Z,2.95
2022-08-18T09:51:44.608Z,3.08
2022-08-18T09:54:28.145Z,2.97
2022-08-18T09:57:27.260Z,3.00
2022-08-18T10:00:03.223Z,2.85
2022-08-18T10:02:37.685Z,3.13
2022-08-18T10:05:21.285Z,3.08
2022-08-18T10:08:08.250Z,3.50
2022-08-18T10:11:00.502Z,2.80
2022-08-18T10:14:12.695Z,3.30
2022-08-18T10:17:24.007Z,2.72
2022-08-18T10:20:23.952Z,3.00
2022-08-18T10:22:57.466Z,2.90
2022-08-18T10:25:43.243Z,2.78
2022-08-18T10:41:31.542Z,2.55
2022-08-18T10:46:53.403Z,3.17
2022-08-18T10:49:28.542Z,2.53
2022-08-18T10:52:35.187Z,2.85
2022-08-18T10:58:09.433Z,2.70
2022-08-18T11:01:14.823Z,2.83
2022-08-18T11:07:22.018Z,3.15
2022-08-18T11:10:04.731Z,3.28
2022-08-18T11:12:47.249Z,2.75
2022-08-18T11:15:52.925Z,3.40
2022-08-18T11:18:49.547Z,3.40
2022-08-18T11:21:41.725Z,3.33
2022-08-18T11:24:29.455Z,3.67
2022-08-18T11:27:04.476Z,3.45
2022-08-18T11:29:43.907Z,3.22
2022-08-18T11:34:59.641Z,2.20
2022-08-18T11:37:51.412Z,3.03
2022-08-18T11:41:10.835Z,3.25
2022-08-18T11:43:29.928Z,2.85
2022-08-18T11:49:30.134Z,2.90
2022-08-18T11:52:34.594Z,3.63
2022-08-18T11:55:14.606Z,2.90
2022-08-18T11:57:59.666Z,2.67
2022-08-18T12:00:42.868Z,2.97
2022-08-18T12:03:41.340Z,2.60
2022-08-18T12:06:31.859Z,3.03
2022-08-18T12:09:36.909Z,3.35
2022-08-18T12:12:30.621Z,2.60
2022-08-18T12:15:24.877Z,1.95
2022-08-18T12:17:53.507Z,2.88
2022-08-18T12:20:22.741Z,3.05
2022-08-18T12:25:39.034Z,2.08
2022-08-18T12:28:10.885Z,2.83
2022-08-18T12:30:42.276Z,2.20
2022-08-18T12:35:59.126Z,2.88
2022-08-18T12:38:27.504Z,2.55
2022-08-18T12:40:55.163Z,3.00
2022-08-18T12:43:22.925Z,2.03
2022-08-18T12:45:50.657Z,1.97
2022-08-18T12:48:22.235Z,2.20
2022-08-18T12:50:58.398Z,2.45
2022-08-18T12:56:31.728Z,2.50
2022-08-18T12:59:05.317Z,1.90
2022-08-18T13:01:36.348Z,2.15
2022-08-18T13:07:00.487Z,1.60
2022-08-18T13:09:35.159Z,1.58
2022-08-18T13:12:20.507Z,1.95
2022-08-18T13:14:50.869Z,1.90
2022-08-18T13:17:32.136Z,1.40
2022-08-18T13:20:09.454Z,1.25
2022-08-18T13:22:41.817Z,1.58
2022-08-18T13:25:28.645Z,1.55
2022-08-18T13:28:02.010Z,1.30
2022-08-18T13:30:32.280Z,1.42
2022-08-18T13:33:05.815Z,0.82
2022-08-18T13:35:52.309Z,1.85
2022-08-18T13:38:27.851Z,1.02
2022-08-18T13:40:59.711Z,1.60
2022-08-18T13:43:37.518Z,1.25
2022-08-18T13:46:09.067Z,1.67
2022-08-18T13:48:39.242Z,1.08
2022-08-18T13:51:20.349Z,1.40
2022-08-18T13:54:06.352Z,1.40
2022-08-18T13:56:39.773Z,2.00
2022-08-18T13:59:07.562Z,1.83
2022-08-18T14:01:44.297Z,1.20
2022-08-18T14:04:22.699Z,1.92
2022-08-18T14:06:57.452Z,1.30
2022-08-18T14:09:37.271Z,1.35
2022-08-18T14:12:23.207Z,2.05
2022-08-18T14:14:55.495Z,1.80
2022-08-18T14:17:26.220Z,1.48
2022-08-18T14:20:21.239Z,1.35
2022-08-18T14:23:14.411Z,1.52
2022-08-18T14:26:08.772Z,0.93
2022-08-18T14:28:38.252Z,1.08
2022-08-18T14:31:09.708Z,1.42
2022-08-18T14:33:50.401Z,1.10
2022-08-18T14:36:29.689Z,1.10
2022-08-18T14:41:40.839Z,1.45
2022-08-18T14:44:23.541Z,1.23
2022-08-18T14:46:54.406Z,1.20
2022-08-18T14:49:28.790Z,1.45
2022-08-18T14:51:59.617Z,1.20
2022-08-18T14:54:30.079Z,1.40
2022-08-18T14:57:02.955Z,1.50
2022-08-18T14:59:37.780Z,1.73
2022-08-18T15:02:11.277Z,1.25
2022-08-18T15:04:53.263Z,1.42
2022-08-18T15:07:25.056Z,1.58
2022-08-18T15:10:14.301Z,2.13
2022-08-18T15:12:42.508Z,1.65
2022-08-18T15:15:17.853Z,2.08
2022-08-18T15:17:50.321Z,1.95
2022-08-18T15:20:29.658Z,2.38
2022-08-18T15:23:25.020Z,2.25
2022-08-18T15:25:57.110Z,2.90
2022-08-18T15:28:28.037Z,3.13
2022-08-18T15:33:43.581Z,3.20
2022-08-18T15:36:28.859Z,3.17
2022-08-18T15:38:59.301Z,2.90
2022-08-18T15:41:45.538Z,3.42
2022-08-18T15:44:14.973Z,3.53
2022-08-18T15:46:43.531Z,3.75
2022-08-18T15:49:19.569Z,4.28
2022-08-18T15:51:49.442Z,2.88
2022-08-18T15:54:17.357Z,2.70
2022-08-18T15:56:58.138Z,1.98
2022-08-18T15:59:33.028Z,2.85
2022-08-18T16:02:11.411Z,1.85
2022-08-18T16:04:41.389Z,2.58
2022-08-18T16:07:17.891Z,2.50
2022-08-18T16:09:46.379Z,1.95
2022-08-18T16:12:14.194Z,2.33
2022-08-18T16:14:41.792Z,1.70
2022-08-18T16:17:17.980Z,1.80
2022-08-18T16:19:51.831Z,2.88
2022-08-18T16:22:19.334Z,2.35
2022-08-18T16:24:52.761Z,2.13
2022-08-18T16:27:23.271Z,2.72
2022-08-18T16:39:41.139Z,2.92
2022-08-18T16:42:08.979Z,2.70
2022-08-18T16:44:37.030Z,2.75
2022-08-18T16:49:33.819Z,3.13
2022-08-18T16:54:32.544Z,5.00
2022-08-18T16:57:00.364Z,4.47
2022-08-18T16:59:46.661Z,4.60
2022-08-18T17:02:34.564Z,5.25
2022-08-18T17:05:03.077Z,5.05
2022-08-18T17:07:33.683Z,4.60
2022-08-18T17:10:02.507Z,4.57
2022-08-18T17:12:31.537Z,4.63
2022-08-18T17:14:59.360Z,3.83
2022-08-18T17:17:27.708Z,5.22
2022-08-18T17:19:55.296Z,4.43
2022-08-18T17:22:23.820Z,4.80
2022-08-18T17:25:01.005Z,3.78
2022-08-18T17:27:37.845Z,4.25
2022-08-18T17:30:27.454Z,4.28
2022-08-18T17:33:10.502Z,3.25
2022-08-18T17:35:42.949Z,4.00
2022-08-18T17:38:40.183Z,3.88
2022-08-18T17:41:07.845Z,5.45
2022-08-18T17:46:28.616Z,6.40
2022-08-18T17:49:54.387Z,10.80
2022-08-18T17:52:53.376Z,8.05
2022-08-18T17:55:39.478Z,7.72
2022-08-18T17:58:14.605Z,6.97
2022-08-18T18:00:42.737Z,6.20
2022-08-18T18:03:13.184Z,8.13
2022-08-18T18:05:51.694Z,9.80
2022-08-18T18:08:19.493Z,10.88
2022-08-18T18:11:04.341Z,8.40
2022-08-18T18:13:34.279Z,6.85
2022-08-18T18:16:25.320Z,6.85
2022-08-18T18:19:06.571Z,6.72
2022-08-18T18:22:00.484Z,6.25
2022-08-18T18:24:32.434Z,5.72
2022-08-18T18:27:00.637Z,6.03
2022-08-18T18:29:37.747Z,4.32
2022-08-18T18:32:24.124Z,4.47
2022-08-18T18:35:15.319Z,4.85
2022-08-18T18:38:00.719Z,6.38
2022-08-18T18:40:53.503Z,5.25
2022-08-18T18:43:33.238Z,5.30
2022-08-18T18:46:23.395Z,6.28
2022-08-18T18:49:23.249Z,5.35
2022-08-18T18:52:00.443Z,4.72
2022-08-18T18:55:03.853Z,5.35
2022-08-18T18:57:50.767Z,6.57
2022-08-18T19:00:38.531Z,5.53
2022-08-18T19:03:17.297Z,6.20
2022-08-18T19:06:04.493Z,6.40
2022-08-18T19:08:36.017Z,5.43
2022-08-18T19:11:22.537Z,4.72
2022-08-18T19:14:03.095Z,4.30
2022-08-18T19:16:44.395Z,5.45
2022-08-18T19:19:40.270Z,4.38
2022-08-18T19:22:54.587Z,5.35
2022-08-18T19:25:37.513Z,5.20
2022-08-18T19:29:11.997Z,4.80
2022-08-18T19:31:47.318Z,4.47
2022-08-18T19:34:31.685Z,4.45
2022-08-18T19:37:26.738Z,3.95
2022-08-18T19:40:42.948Z,3.85
2022-08-18T19:43:26.726Z,3.88
2022-08-18T19:46:11.035Z,4.75
2022-08-18T19:48:45.938Z,5.55
2022-08-18T19:51:37.565Z,5.93
2022-08-18T19:54:39.975Z,4.20
2022-08-18T19:57:52.367Z,3.85
2022-08-18T20:00:47.374Z,4.45
2022-08-18T20:03:54.317Z,4.45
2022-08-18T20:07:06.549Z,5.68
2022-08-18T20:10:09.267Z,4.22
2022-08-18T20:12:46.507Z,4.55
2022-08-18T20:15:23.653Z,3.97
2022-08-18T20:17:54.297Z,4.90
2022-08-18T20:20:25.371Z,4.95
2022-08-18T20:22:57.303Z,5.72
2022-08-18T20:25:25.059Z,5.18
2022-08-18T20:27:58.804Z,4.75
2022-08-18T20:30:40.050Z,4.50
2022-08-18T20:33:25.780Z,4.45
2022-08-18T20:36:11.613Z,5.45
2022-08-18T20:38:49.174Z,4.68
2022-08-18T20:41:28.795Z,4.33
2022-08-18T20:44:48.221Z,4.65
2022-08-18T20:47:30.832Z,4.00
2022-08-18T20:50:35.520Z,4.95
2022-08-18T20:53:40.427Z,4.63
2022-08-18T20:56:43.430Z,4.28
2022-08-18T20:59:36.042Z,3.75
2022-08-18T21:02:26.775Z,4.50
2022-08-18T21:05:00.171Z,3.20
2022-08-18T21:07:36.001Z,4.30
2022-08-18T21:10:24.304Z,4.57
2022-08-18T21:12:56.551Z,3.63
2022-08-18T21:15:30.916Z,3.80
2022-08-18T21:18:18.909Z,3.15
2022-08-18T21:20:53.867Z,3.22
2022-08-18T21:23:50.983Z,4.43
2022-08-18T21:26:19.970Z,3.17
2022-08-18T21:31:43.953Z,4.20
2022-08-18T21:34:14.311Z,3.03
2022-08-18T21:37:10.209Z,3.30
2022-08-18T21:40:07.856Z,2.55
2022-08-18T21:42:46.274Z,2.88
2022-08-18T21:45:21.980Z,3.45
2022-08-18T21:47:58.066Z,2.55
2022-08-18T21:50:33.202Z,3.05
2022-08-18T21:53:28.194Z,3.17
2022-08-18T21:55:58.785Z,2.88
2022-08-18T21:58:37.330Z,1.85
2022-08-18T22:01:16.999Z,2.10
2022-08-18T22:04:22.079Z,3.22
2022-08-18T22:06:58.114Z,2.78
2022-08-18T22:09:49.691Z,3.20
2022-08-18T22:12:51.559Z,2.67
2022-08-18T22:15:27.395Z,1.98
2022-08-18T22:18:06.356Z,1.95
2022-08-18T22:20:50.869Z,2.20
2022-08-18T22:23:43.955Z,3.22
2022-08-18T22:26:17.588Z,2.40
2022-08-18T22:29:13.688Z,2.65
2022-08-18T22:31:45.467Z,2.55
2022-08-18T22:34:27.369Z,2.45
2022-08-18T22:37:10.618Z,2.13
2022-08-18T22:39:40.924Z,2.95
2022-08-18T22:42:09.804Z,2.60
2022-08-18T22:47:06.259Z,2.20
2022-08-18T22:49:36.913Z,2.10
2022-08-18T22:52:29.924Z,2.17
2022-08-18T22:55:08.053Z,2.00
2022-08-18T22:57:37.446Z,2.28
2022-08-18T23:00:21.206Z,1.85
2022-08-18T23:02:50.566Z,1.80
2022-08-18T23:05:18.759Z,2.73
2022-08-18T23:07:46.325Z,2.53
2022-08-18T23:10:16.502Z,2.17
2022-08-18T23:12:47.201Z,1.70
2022-08-18T23:15:17.368Z,2.30
2022-08-18T23:17:45.257Z,1.95
2022-08-18T23:20:18.198Z,2.28
2022-08-18T23:22:47.892Z,2.45
2022-08-18T23:25:16.412Z,1.77
2022-08-18T23:27:44.036Z,2.28
2022-08-18T23:30:13.794Z,2.37
2022-08-18T23:32:41.314Z,1.60
2022-08-18T23:35:09.010Z,2.55
2022-08-18T23:37:37.930Z,2.13
2022-08-18T23:42:35.112Z,1.73
2022-08-18T23:45:05.598Z,1.40
2022-08-18T23:47:33.578Z,1.60
2022-08-18T23:50:01.947Z,1.38
2022-08-18T23:52:30.674Z,2.28
2022-08-18T23:54:58.175Z,1.50
2022-08-18T23:57:25.761Z,1.63
2022-08-18T23:59:54.568Z,1.87
